sensor_id;sensor_type;location;lat;lon;timestamp;pressure;altitude;pressure_sealevel;temperature;humidity
61478;BME280;47345;52.334;10.392;2023-08-06T00:01:47;100043.86;;;16.37;86.96
61478;BME280;47345;52.334;10.392;2023-08-06T00:04:18;100051.20;;;16.38;87.05
61478;BME280;47345;52.334;10.392;2023-08-06T00:06:49;100044.96;;;16.38;86.85
61478;BME280;47345;52.334;10.392;2023-08-06T00:09:20;100032.24;;;16.37;86.83
61478;BME280;47345;52.334;10.392;2023-08-06T00:11:51;100024.68;;;16.35;86.75
61478;BME280;47345;52.334;10.392;2023-08-06T00:14:22;100024.98;;;16.33;86.87
61478;BME280;47345;52.334;10.392;2023-08-06T00:16:53;100023.05;;;16.32;86.94
61478;BME280;47345;52.334;10.392;2023-08-06T00:19:24;100017.67;;;16.30;86.98
61478;BME280;47345;52.334;10.392;2023-08-06T00:21:55;100016.34;;;16.28;86.96
61478;BME280;47345;52.334;10.392;2023-08-06T00:24:26;100012.45;;;16.26;87.08
61478;BME280;47345;52.334;10.392;2023-08-06T00:26:57;100003.67;;;16.25;87.23
61478;BME280;47345;52.334;10.392;2023-08-06T00:29:27;100002.80;;;16.27;87.25
61478;BME280;47345;52.334;10.392;2023-08-06T00:31:58;100003.43;;;16.29;87.02
61478;BME280;47345;52.334;10.392;2023-08-06T00:34:29;100004.05;;;16.30;86.87
61478;BME280;47345;52.334;10.392;2023-08-06T00:37:00;100001.23;;;16.29;86.83
61478;BME280;47345;52.334;10.392;2023-08-06T00:39:31;99992.77;;;16.28;87.03
61478;BME280;47345;52.334;10.392;2023-08-06T00:42:03;99984.51;;;16.30;87.31
61478;BME280;47345;52.334;10.392;2023-08-06T00:44:34;99984.51;;;16.30;87.15
61478;BME280;47345;52.334;10.392;2023-08-06T00:47:05;99978.77;;;16.29;87.21
61478;BME280;47345;52.334;10.392;2023-08-06T00:49:37;99973.90;;;16.29;87.24
61478;BME280;47345;52.334;10.392;2023-08-06T00:52:10;99967.67;;;16.30;87.31
61478;BME280;47345;52.334;10.392;2023-08-06T00:54:43;99964.35;;;16.29;87.36
61478;BME280;47345;52.334;10.392;2023-08-06T00:57:14;99959.60;;;16.29;87.59
61478;BME280;47345;52.334;10.392;2023-08-06T00:59:45;99959.23;;;16.30;87.49
61478;BME280;47345;52.334;10.392;2023-08-06T01:02:16;99952.27;;;16.30;87.27
61478;BME280;47345;52.334;10.392;2023-08-06T01:04:47;99951.16;;;16.29;87.30
61478;BME280;47345;52.334;10.392;2023-08-06T01:07:25;99946.20;;;16.30;87.49
61478;BME280;47345;52.334;10.392;2023-08-06T01:10:14;99943.40;;;16.31;87.31
61478;BME280;47345;52.334;10.392;2023-08-06T01:12:55;99945.65;;;16.29;87.36
61478;BME280;47345;52.334;10.392;2023-08-06T01:15:32;99948.41;;;16.29;87.58
61478;BME280;47345;52.334;10.392;2023-08-06T01:18:06;99949.78;;;16.29;87.51
61478;BME280;47345;52.334;10.392;2023-08-06T01:20:37;99943.05;;;16.29;87.59
61478;BME280;47345;52.334;10.392;2023-08-06T01:23:08;99946.16;;;16.32;87.71
61478;BME280;47345;52.334;10.392;2023-08-06T01:25:45;99939.66;;;16.33;87.72
61478;BME280;47345;52.334;10.392;2023-08-06T01:28:25;99936.96;;;16.35;87.83
61478;BME280;47345;52.334;10.392;2023-08-06T01:31:01;99936.41;;;16.35;87.72
61478;BME280;47345;52.334;10.392;2023-08-06T01:33:33;99927.17;;;16.32;87.79
61478;BME280;47345;52.334;10.392;2023-08-06T01:36:06;99922.09;;;16.30;87.72
61478;BME280;47345;52.334;10.392;2023-08-06T01:38:37;99921.96;;;16.29;87.97
61478;BME280;47345;52.334;10.392;2023-08-06T01:41:08;99921.52;;;16.26;87.88
61478;BME280;47345;52.334;10.392;2023-08-06T01:43:39;99919.61;;;16.24;88.01
61478;BME280;47345;52.334;10.392;2023-08-06T01:46:10;99915.95;;;16.23;88.28
61478;BME280;47345;52.334;10.392;2023-08-06T01:48:41;99916.67;;;16.22;88.18
61478;BME280;47345;52.334;10.392;2023-08-06T01:51:12;99914.73;;;16.20;88.11
61478;BME280;47345;52.334;10.392;2023-08-06T01:53:42;99910.31;;;16.19;88.17
61478;BME280;47345;52.334;10.392;2023-08-06T01:56:13;99907.88;;;16.19;88.16
61478;BME280;47345;52.334;10.392;2023-08-06T01:58:44;99899.27;;;16.17;88.31
61478;BME280;47345;52.334;10.392;2023-08-06T02:01:14;99896.44;;;16.17;88.45
61478;BME280;47345;52.334;10.392;2023-08-06T02:03:45;99897.10;;;16.15;88.38
61478;BME280;47345;52.334;10.392;2023-08-06T02:06:16;99891.89;;;16.12;88.32
61478;BME280;47345;52.334;10.392;2023-08-06T02:08:46;99886.91;;;16.11;88.50
61478;BME280;47345;52.334;10.392;2023-08-06T02:11:17;99890.55;;;16.10;88.83
61478;BME280;47345;52.334;10.392;2023-08-06T02:13:48;99889.16;;;16.10;88.94
61478;BME280;47345;52.334;10.392;2023-08-06T02:16:19;99890.27;;;16.12;88.97
61478;BME280;47345;52.334;10.392;2023-08-06T02:18:50;99891.20;;;16.11;88.74
61478;BME280;47345;52.334;10.392;2023-08-06T02:21:21;99890.81;;;16.09;88.73
61478;BME280;47345;52.334;10.392;2023-08-06T02:23:52;99890.74;;;16.08;88.93
61478;BME280;47345;52.334;10.392;2023-08-06T02:26:23;99892.58;;;16.08;89.10
61478;BME280;47345;52.334;10.392;2023-08-06T02:28:53;99891.04;;;16.08;88.97
61478;BME280;47345;52.334;10.392;2023-08-06T02:31:24;99883.23;;;16.07;89.03
61478;BME280;47345;52.334;10.392;2023-08-06T02:33:55;99874.30;;;16.07;89.14
61478;BME280;47345;52.334;10.392;2023-08-06T02:36:27;99873.09;;;16.07;89.10
61478;BME280;47345;52.334;10.392;2023-08-06T02:38:58;99875.46;;;16.06;89.08
61478;BME280;47345;52.334;10.392;2023-08-06T02:41:30;99872.37;;;16.06;89.19
61478;BME280;47345;52.334;10.392;2023-08-06T02:44:01;99867.13;;;16.06;89.28
61478;BME280;47345;52.334;10.392;2023-08-06T02:46:32;99862.94;;;16.06;89.15
61478;BME280;47345;52.334;10.392;2023-08-06T02:49:03;99858.51;;;16.06;89.33
61478;BME280;47345;52.334;10.392;2023-08-06T02:51:34;99859.84;;;16.07;89.12
61478;BME280;47345;52.334;10.392;2023-08-06T02:54:05;99851.45;;;16.05;88.85
61478;BME280;47345;52.334;10.392;2023-08-06T02:56:36;99848.09;;;16.06;89.11
61478;BME280;47345;52.334;10.392;2023-08-06T02:59:08;99843.52;;;16.06;89.08
61478;BME280;47345;52.334;10.392;2023-08-06T03:01:39;99844.06;;;16.06;88.99
61478;BME280;47345;52.334;10.392;2023-08-06T03:04:11;99839.91;;;16.05;89.12
61478;BME280;47345;52.334;10.392;2023-08-06T03:06:42;99830.42;;;16.05;88.93
61478;BME280;47345;52.334;10.392;2023-08-06T03:09:12;99827.50;;;16.04;88.92
61478;BME280;47345;52.334;10.392;2023-08-06T03:11:43;99824.63;;;16.02;88.87
61478;BME280;47345;52.334;10.392;2023-08-06T03:14:14;99826.31;;;16.02;88.96
61478;BME280;47345;52.334;10.392;2023-08-06T03:16:46;99828.76;;;16.02;89.09
61478;BME280;47345;52.334;10.392;2023-08-06T03:19:16;99828.20;;;16.01;88.98
61478;BME280;47345;52.334;10.392;2023-08-06T03:21:47;99828.20;;;16.00;88.97
61478;BME280;47345;52.334;10.392;2023-08-06T03:24:18;99827.73;;;15.98;88.93
61478;BME280;47345;52.334;10.392;2023-08-06T03:26:49;99823.36;;;15.97;89.04
61478;BME280;47345;52.334;10.392;2023-08-06T03:29:20;99822.25;;;15.95;89.08
61478;BME280;47345;52.334;10.392;2023-08-06T03:31:53;99824.18;;;15.94;89.22
61478;BME280;47345;52.334;10.392;2023-08-06T03:34:23;99827.05;;;15.94;89.31
61478;BME280;47345;52.334;10.392;2023-08-06T03:36:55;99826.98;;;15.94;89.34
61478;BME280;47345;52.334;10.392;2023-08-06T03:39:26;99822.91;;;15.95;89.55
61478;BME280;47345;52.334;10.392;2023-08-06T03:41:56;99824.35;;;15.95;89.66
61478;BME280;47345;52.334;10.392;2023-08-06T03:44:27;99819.89;;;15.97;89.79
61478;BME280;47345;52.334;10.392;2023-08-06T03:46:58;99821.99;;;15.97;89.75
61478;BME280;47345;52.334;10.392;2023-08-06T03:49:30;99814.44;;;15.97;89.77
61478;BME280;47345;52.334;10.392;2023-08-06T03:52:01;99815.04;;;15.98;89.64
61478;BME280;47345;52.334;10.392;2023-08-06T03:54:32;99813.39;;;15.98;89.67
61478;BME280;47345;52.334;10.392;2023-08-06T03:57:03;99814.39;;;15.99;89.55
61478;BME280;47345;52.334;10.392;2023-08-06T03:59:34;99812.08;;;15.99;89.37
61478;BME280;47345;52.334;10.392;2023-08-06T04:02:05;99812.20;;;16.01;89.25
61478;BME280;47345;52.334;10.392;2023-08-06T04:04:36;99808.34;;;16.02;89.03
61478;BME280;47345;52.334;10.392;2023-08-06T04:07:07;99812.70;;;16.02;88.74
61478;BME280;47345;52.334;10.392;2023-08-06T04:09:53;99813.18;;;16.00;88.60
61478;BME280;47345;52.334;10.392;2023-08-06T04:12:23;99812.79;;;15.98;88.68
61478;BME280;47345;52.334;10.392;2023-08-06T04:14:55;99809.46;;;15.97;89.04
61478;BME280;47345;52.334;10.392;2023-08-06T04:17:26;99815.27;;;15.98;89.13
61478;BME280;47345;52.334;10.392;2023-08-06T04:19:57;99817.64;;;15.98;89.19
61478;BME280;47345;52.334;10.392;2023-08-06T04:22:29;99815.00;;;15.99;89.36
61478;BME280;47345;52.334;10.392;2023-08-06T04:25:00;99817.18;;;16.03;89.37
61478;BME280;47345;52.334;10.392;2023-08-06T04:27:31;99813.33;;;16.04;89.25
61478;BME280;47345;52.334;10.392;2023-08-06T04:30:03;99812.67;;;16.05;89.23
61478;BME280;47345;52.334;10.392;2023-08-06T04:32:37;99807.86;;;16.07;89.25
61478;BME280;47345;52.334;10.392;2023-08-06T04:35:08;99806.46;;;16.10;89.29
61478;BME280;47345;52.334;10.392;2023-08-06T04:37:39;99807.70;;;16.14;88.98
61478;BME280;47345;52.334;10.392;2023-08-06T04:40:11;99802.52;;;16.16;88.79
61478;BME280;47345;52.334;10.392;2023-08-06T04:42:42;99807.28;;;16.17;88.82
61478;BME280;47345;52.334;10.392;2023-08-06T04:45:13;99807.52;;;16.20;88.60
61478;BME280;47345;52.334;10.392;2023-08-06T04:47:44;99806.30;;;16.22;88.54
61478;BME280;47345;52.334;10.392;2023-08-06T04:50:16;99803.10;;;16.23;88.62
61478;BME280;47345;52.334;10.392;2023-08-06T04:52:47;99801.75;;;16.26;88.57
61478;BME280;47345;52.334;10.392;2023-08-06T04:55:18;99801.42;;;16.29;88.41
61478;BME280;47345;52.334;10.392;2023-08-06T04:57:49;99800.39;;;16.31;88.30
61478;BME280;47345;52.334;10.392;2023-08-06T05:00:20;99798.80;;;16.33;88.38
61478;BME280;47345;52.334;10.392;2023-08-06T05:02:50;99793.64;;;16.38;88.43
61478;BME280;47345;52.334;10.392;2023-08-06T05:05:22;99796.75;;;16.42;88.12
61478;BME280;47345;52.334;10.392;2023-08-06T05:07:54;99797.52;;;16.46;87.97
61478;BME280;47345;52.334;10.392;2023-08-06T05:10:25;99796.38;;;16.50;88.06
61478;BME280;47345;52.334;10.392;2023-08-06T05:12:56;99795.52;;;16.56;87.85
61478;BME280;47345;52.334;10.392;2023-08-06T05:15:27;99794.81;;;16.61;87.90
61478;BME280;47345;52.334;10.392;2023-08-06T05:17:57;99789.35;;;16.64;87.71
61478;BME280;47345;52.334;10.392;2023-08-06T05:20:29;99789.16;;;16.72;87.52
61478;BME280;47345;52.334;10.392;2023-08-06T05:23:00;99789.30;;;16.77;87.33
61478;BME280;47345;52.334;10.392;2023-08-06T05:25:31;99784.34;;;16.83;87.23
61478;BME280;47345;52.334;10.392;2023-08-06T05:28:01;99785.89;;;16.90;87.20
61478;BME280;47345;52.334;10.392;2023-08-06T05:30:32;99785.09;;;16.95;86.86
61478;BME280;47345;52.334;10.392;2023-08-06T05:33:06;99785.17;;;17.01;86.87
61478;BME280;47345;52.334;10.392;2023-08-06T05:35:37;99783.23;;;17.09;86.72
61478;BME280;47345;52.334;10.392;2023-08-06T05:38:08;99787.89;;;17.16;86.50
61478;BME280;47345;52.334;10.392;2023-08-06T05:40:39;99785.08;;;17.21;86.28
61478;BME280;47345;52.334;10.392;2023-08-06T05:43:10;99779.73;;;17.28;86.12
61478;BME280;47345;52.334;10.392;2023-08-06T05:45:43;99775.14;;;17.35;85.90
61478;BME280;47345;52.334;10.392;2023-08-06T05:48:14;99772.10;;;17.43;85.51
61478;BME280;47345;52.334;10.392;2023-08-06T05:50:45;99774.45;;;17.51;85.17
61478;BME280;47345;52.334;10.392;2023-08-06T05:53:16;99772.80;;;17.59;85.01
61478;BME280;47345;52.334;10.392;2023-08-06T05:55:46;99775.06;;;17.67;84.84
61478;BME280;47345;52.334;10.392;2023-08-06T05:58:18;99775.55;;;17.74;84.54
61478;BME280;47345;52.334;10.392;2023-08-06T06:00:49;99778.92;;;17.80;84.07
61478;BME280;47345;52.334;10.392;2023-08-06T06:03:20;99781.23;;;17.86;84.06
61478;BME280;47345;52.334;10.392;2023-08-06T06:05:51;99779.94;;;17.96;83.97
61478;BME280;47345;52.334;10.392;2023-08-06T06:08:22;99775.67;;;18.05;83.89
61478;BME280;47345;52.334;10.392;2023-08-06T06:10:53;99775.15;;;18.16;83.79
61478;BME280;47345;52.334;10.392;2023-08-06T06:13:24;99772.39;;;18.27;83.37
61478;BME280;47345;52.334;10.392;2023-08-06T06:15:56;99769.20;;;18.38;82.90
61478;BME280;47345;52.334;10.392;2023-08-06T06:18:27;99767.60;;;18.49;82.44
61478;BME280;47345;52.334;10.392;2023-08-06T06:20:58;99769.64;;;18.60;81.82
61478;BME280;47345;52.334;10.392;2023-08-06T06:23:28;99771.41;;;18.69;81.43
61478;BME280;47345;52.334;10.392;2023-08-06T06:25:59;99767.98;;;18.79;81.16
61478;BME280;47345;52.334;10.392;2023-08-06T06:28:30;99771.08;;;18.92;81.03
61478;BME280;47345;52.334;10.392;2023-08-06T06:31:02;99768.84;;;19.06;80.93
61478;BME280;47345;52.334;10.392;2023-08-06T06:33:34;99769.27;;;19.22;80.56
61478;BME280;47345;52.334;10.392;2023-08-06T06:36:05;99766.59;;;19.33;80.33
61478;BME280;47345;52.334;10.392;2023-08-06T06:38:37;99769.20;;;19.45;79.86
61478;BME280;47345;52.334;10.392;2023-08-06T06:41:08;99768.23;;;19.61;79.87
61478;BME280;47345;52.334;10.392;2023-08-06T06:43:39;99768.80;;;19.75;79.22
61478;BME280;47345;52.334;10.392;2023-08-06T06:46:10;99766.69;;;19.88;78.45
61478;BME280;47345;52.334;10.392;2023-08-06T06:48:41;99769.10;;;19.98;77.89
61478;BME280;47345;52.334;10.392;2023-08-06T06:51:12;99772.27;;;20.08;76.97
61478;BME280;47345;52.334;10.392;2023-08-06T06:53:43;99769.87;;;20.17;76.53
61478;BME280;47345;52.334;10.392;2023-08-06T06:56:14;99768.39;;;20.26;75.89
61478;BME280;47345;52.334;10.392;2023-08-06T06:58:45;99762.14;;;20.32;75.32
61478;BME280;47345;52.334;10.392;2023-08-06T07:01:16;99759.45;;;20.39;74.56
61478;BME280;47345;52.334;10.392;2023-08-06T07:03:47;99760.27;;;20.49;74.64
61478;BME280;47345;52.334;10.392;2023-08-06T07:06:17;99760.55;;;20.65;74.72
61478;BME280;47345;52.334;10.392;2023-08-06T07:08:49;99761.65;;;20.84;74.25
61478;BME280;47345;52.334;10.392;2023-08-06T07:11:20;99760.65;;;20.95;73.07
61478;BME280;47345;52.334;10.392;2023-08-06T07:13:55;99754.91;;;20.99;72.11
61478;BME280;47345;52.334;10.392;2023-08-06T07:16:26;99752.74;;;21.07;72.09
61478;BME280;47345;52.334;10.392;2023-08-06T07:18:58;99754.80;;;21.14;71.80
61478;BME280;47345;52.334;10.392;2023-08-06T07:21:29;99756.20;;;21.23;71.02
61478;BME280;47345;52.334;10.392;2023-08-06T07:24:01;99757.41;;;21.31;71.29
61478;BME280;47345;52.334;10.392;2023-08-06T07:26:31;99755.08;;;21.35;71.14
61478;BME280;47345;52.334;10.392;2023-08-06T07:29:03;99754.52;;;21.37;71.45
61478;BME280;47345;52.334;10.392;2023-08-06T07:31:33;99757.61;;;21.36;70.66
61478;BME280;47345;52.334;10.392;2023-08-06T07:34:05;99757.94;;;21.33;70.70
61478;BME280;47345;52.334;10.392;2023-08-06T07:36:35;99755.61;;;21.36;70.44
61478;BME280;47345;52.334;10.392;2023-08-06T07:39:06;99755.83;;;21.46;70.74
61478;BME280;47345;52.334;10.392;2023-08-06T07:41:37;99754.58;;;21.61;70.62
61478;BME280;47345;52.334;10.392;2023-08-06T07:44:08;99751.95;;;21.71;70.78
61478;BME280;47345;52.334;10.392;2023-08-06T07:46:39;99753.73;;;21.87;69.80
61478;BME280;47345;52.334;10.392;2023-08-06T07:49:10;99752.19;;;21.97;69.34
61478;BME280;47345;52.334;10.392;2023-08-06T07:51:41;99751.25;;;22.06;68.50
61478;BME280;47345;52.334;10.392;2023-08-06T07:54:12;99751.27;;;22.19;68.07
61478;BME280;47345;52.334;10.392;2023-08-06T07:56:43;99752.38;;;22.27;67.75
61478;BME280;47345;52.334;10.392;2023-08-06T07:59:14;99751.23;;;22.32;67.22
61478;BME280;47345;52.334;10.392;2023-08-06T08:01:44;99752.19;;;22.36;66.60
61478;BME280;47345;52.334;10.392;2023-08-06T08:04:15;99754.05;;;22.52;66.15
61478;BME280;47345;52.334;10.392;2023-08-06T08:06:46;99753.02;;;22.72;66.45
61478;BME280;47345;52.334;10.392;2023-08-06T08:09:16;99754.41;;;22.91;64.94
61478;BME280;47345;52.334;10.392;2023-08-06T08:11:47;99749.92;;;23.07;64.06
61478;BME280;47345;52.334;10.392;2023-08-06T08:14:20;99744.83;;;23.14;63.58
61478;BME280;47345;52.334;10.392;2023-08-06T08:16:51;99742.38;;;23.17;63.19
61478;BME280;47345;52.334;10.392;2023-08-06T08:19:21;99741.27;;;23.24;62.42
61478;BME280;47345;52.334;10.392;2023-08-06T08:21:53;99741.22;;;23.40;62.99
61478;BME280;47345;52.334;10.392;2023-08-06T08:24:24;99735.94;;;23.52;62.80
61478;BME280;47345;52.334;10.392;2023-08-06T08:26:55;99729.37;;;23.60;62.39
61478;BME280;47345;52.334;10.392;2023-08-06T08:29:26;99731.45;;;23.72;61.87
61478;BME280;47345;52.334;10.392;2023-08-06T08:31:56;99732.36;;;23.83;61.68
61478;BME280;47345;52.334;10.392;2023-08-06T08:34:28;99731.34;;;23.82;62.00
61478;BME280;47345;52.334;10.392;2023-08-06T08:36:58;99730.18;;;23.80;62.07
61478;BME280;47345;52.334;10.392;2023-08-06T08:39:30;99722.72;;;23.77;61.76
61478;BME280;47345;52.334;10.392;2023-08-06T08:42:01;99723.04;;;23.69;61.91
61478;BME280;47345;52.334;10.392;2023-08-06T08:44:33;99719.52;;;23.69;61.62
61478;BME280;47345;52.334;10.392;2023-08-06T08:47:08;99720.35;;;23.71;61.85
61478;BME280;47345;52.334;10.392;2023-08-06T08:49:41;99717.82;;;23.66;60.67
61478;BME280;47345;52.334;10.392;2023-08-06T08:52:14;99712.63;;;23.62;61.23
61478;BME280;47345;52.334;10.392;2023-08-06T08:54:46;99715.27;;;23.67;61.36
61478;BME280;47345;52.334;10.392;2023-08-06T08:57:22;99715.46;;;23.66;60.67
61478;BME280;47345;52.334;10.392;2023-08-06T08:59:52;99715.56;;;23.67;60.59
61478;BME280;47345;52.334;10.392;2023-08-06T09:02:24;99715.09;;;23.71;60.11
61478;BME280;47345;52.334;10.392;2023-08-06T09:04:56;99716.66;;;23.82;59.02
61478;BME280;47345;52.334;10.392;2023-08-06T09:07:31;99712.66;;;23.95;58.38
61478;BME280;47345;52.334;10.392;2023-08-06T09:10:04;99712.87;;;24.00;58.79
61478;BME280;47345;52.334;10.392;2023-08-06T09:12:37;99708.92;;;24.09;58.34
61478;BME280;47345;52.334;10.392;2023-08-06T09:15:09;99710.66;;;24.29;57.60
61478;BME280;47345;52.334;10.392;2023-08-06T09:17:41;99712.47;;;24.50;57.29
61478;BME280;47345;52.334;10.392;2023-08-06T09:20:14;99710.90;;;24.63;57.66
61478;BME280;47345;52.334;10.392;2023-08-06T09:22:45;99711.83;;;24.64;57.69
61478;BME280;47345;52.334;10.392;2023-08-06T09:25:22;99712.39;;;24.56;56.63
61478;BME280;47345;52.334;10.392;2023-08-06T09:27:53;99709.11;;;24.28;57.14
61478;BME280;47345;52.334;10.392;2023-08-06T09:30:35;99704.54;;;24.06;57.48
61478;BME280;47345;52.334;10.392;2023-08-06T09:33:09;99701.17;;;23.82;56.69
61478;BME280;47345;52.334;10.392;2023-08-06T09:35:41;99700.27;;;23.73;57.99
61478;BME280;47345;52.334;10.392;2023-08-06T09:38:11;99700.39;;;23.80;58.50
61478;BME280;47345;52.334;10.392;2023-08-06T09:40:42;99704.64;;;23.81;57.45
61478;BME280;47345;52.334;10.392;2023-08-06T09:43:13;99699.41;;;23.85;57.61
61478;BME280;47345;52.334;10.392;2023-08-06T09:45:44;99695.77;;;23.89;57.91
61478;BME280;47345;52.334;10.392;2023-08-06T09:48:15;99693.34;;;23.96;58.69
61478;BME280;47345;52.334;10.392;2023-08-06T09:50:47;99697.53;;;24.01;57.99
61478;BME280;47345;52.334;10.392;2023-08-06T09:53:18;99697.74;;;24.06;57.89
61478;BME280;47345;52.334;10.392;2023-08-06T09:55:49;99696.26;;;24.08;56.63
61478;BME280;47345;52.334;10.392;2023-08-06T09:58:22;99700.89;;;24.28;56.43
61478;BME280;47345;52.334;10.392;2023-08-06T10:00:53;99695.20;;;24.50;54.60
61478;BME280;47345;52.334;10.392;2023-08-06T10:03:25;99694.26;;;24.74;53.38
61478;BME280;47345;52.334;10.392;2023-08-06T10:05:59;99690.23;;;24.95;52.70
61478;BME280;47345;52.334;10.392;2023-08-06T10:08:32;99689.79;;;25.10;51.87
61478;BME280;47345;52.334;10.392;2023-08-06T10:11:04;99684.56;;;25.24;52.34
61478;BME280;47345;52.334;10.392;2023-08-06T10:13:36;99687.27;;;25.34;53.16
61478;BME280;47345;52.334;10.392;2023-08-06T10:16:08;99690.20;;;25.45;51.67
61478;BME280;47345;52.334;10.392;2023-08-06T10:18:39;99692.40;;;25.42;50.60
61478;BME280;47345;52.334;10.392;2023-08-06T10:21:11;99677.45;;;25.13;51.43
61478;BME280;47345;52.334;10.392;2023-08-06T10:23:43;99675.60;;;25.09;51.82
61478;BME280;47345;52.334;10.392;2023-08-06T10:26:13;99672.75;;;25.26;52.74
61478;BME280;47345;52.334;10.392;2023-08-06T10:28:46;99676.46;;;25.05;52.33
61478;BME280;47345;52.334;10.392;2023-08-06T10:31:17;99676.31;;;24.70;52.65
61478;BME280;47345;52.334;10.392;2023-08-06T10:33:49;99671.35;;;24.38;53.70
61478;BME280;47345;52.334;10.392;2023-08-06T10:36:20;99664.56;;;24.13;54.63
61478;BME280;47345;52.334;10.392;2023-08-06T10:38:51;99663.08;;;23.92;55.17
61478;BME280;47345;52.334;10.392;2023-08-06T10:41:29;99658.96;;;23.72;55.32
61478;BME280;47345;52.334;10.392;2023-08-06T10:44:06;99658.39;;;23.65;55.15
61478;BME280;47345;52.334;10.392;2023-08-06T10:46:38;99656.61;;;23.65;57.00
61478;BME280;47345;52.334;10.392;2023-08-06T10:49:09;99655.17;;;23.82;55.68
61478;BME280;47345;52.334;10.392;2023-08-06T10:51:42;99652.09;;;24.08;54.78
61478;BME280;47345;52.334;10.392;2023-08-06T10:54:14;99649.03;;;24.41;53.31
61478;BME280;47345;52.334;10.392;2023-08-06T10:56:45;99645.38;;;24.57;53.47
61478;BME280;47345;52.334;10.392;2023-08-06T10:59:17;99642.93;;;24.72;52.81
61478;BME280;47345;52.334;10.392;2023-08-06T11:01:48;99639.83;;;24.90;52.27
61478;BME280;47345;52.334;10.392;2023-08-06T11:04:19;99634.25;;;24.94;51.78
61478;BME280;47345;52.334;10.392;2023-08-06T11:06:54;99635.12;;;24.91;52.46
61478;BME280;47345;52.334;10.392;2023-08-06T11:09:25;99634.84;;;24.98;52.46
61478;BME280;47345;52.334;10.392;2023-08-06T11:11:56;99632.19;;;25.12;51.63
61478;BME280;47345;52.334;10.392;2023-08-06T11:14:30;99624.12;;;25.35;50.99
61478;BME280;47345;52.334;10.392;2023-08-06T11:17:01;99624.89;;;25.57;49.79
61478;BME280;47345;52.334;10.392;2023-08-06T11:19:32;99618.67;;;25.61;46.54
61478;BME280;47345;52.334;10.392;2023-08-06T11:22:03;99617.76;;;25.60;47.60
61478;BME280;47345;52.334;10.392;2023-08-06T11:24:35;99617.62;;;25.61;48.51
61478;BME280;47345;52.334;10.392;2023-08-06T11:27:14;99609.58;;;25.70;46.84
61478;BME280;47345;52.334;10.392;2023-08-06T11:29:45;99609.83;;;25.74;47.79
61478;BME280;47345;52.334;10.392;2023-08-06T11:32:16;99602.02;;;25.73;47.32
61478;BME280;47345;52.334;10.392;2023-08-06T11:34:47;99599.11;;;25.95;47.19
61478;BME280;47345;52.334;10.392;2023-08-06T11:37:22;99595.17;;;26.11;48.93
61478;BME280;47345;52.334;10.392;2023-08-06T11:39:54;99597.63;;;26.12;47.51
61478;BME280;47345;52.334;10.392;2023-08-06T11:42:25;99600.13;;;26.20;48.20
61478;BME280;47345;52.334;10.392;2023-08-06T11:44:58;99600.89;;;26.23;47.02
61478;BME280;47345;52.334;10.392;2023-08-06T11:47:29;99597.05;;;26.19;47.56
61478;BME280;47345;52.334;10.392;2023-08-06T11:50:00;99600.95;;;26.01;47.80
61478;BME280;47345;52.334;10.392;2023-08-06T11:52:30;99602.59;;;25.93;48.12
61478;BME280;47345;52.334;10.392;2023-08-06T11:55:07;99598.34;;;25.75;48.05
61478;BME280;47345;52.334;10.392;2023-08-06T11:57:43;99596.02;;;25.53;47.60
61478;BME280;47345;52.334;10.392;2023-08-06T12:00:15;99589.11;;;25.52;49.03
61478;BME280;47345;52.334;10.392;2023-08-06T12:02:48;99584.21;;;25.80;47.52
61478;BME280;47345;52.334;10.392;2023-08-06T12:05:22;99584.40;;;26.22;46.60
61478;BME280;47345;52.334;10.392;2023-08-06T12:07:56;99588.71;;;26.60;46.24
61478;BME280;47345;52.334;10.392;2023-08-06T12:10:29;99578.02;;;26.70;46.57
61478;BME280;47345;52.334;10.392;2023-08-06T12:13:01;99579.16;;;26.68;45.62
61478;BME280;47345;52.334;10.392;2023-08-06T12:15:32;99574.13;;;26.64;45.35
61478;BME280;47345;52.334;10.392;2023-08-06T12:18:03;99568.50;;;26.66;44.93
61478;BME280;47345;52.334;10.392;2023-08-06T12:20:35;99568.59;;;27.00;45.34
61478;BME280;47345;52.334;10.392;2023-08-06T12:23:08;99569.50;;;27.22;46.61
61478;BME280;47345;52.334;10.392;2023-08-06T12:25:39;99566.14;;;27.20;45.41
61478;BME280;47345;52.334;10.392;2023-08-06T12:28:10;99563.55;;;26.66;44.48
61478;BME280;47345;52.334;10.392;2023-08-06T12:30:42;99562.12;;;26.19;45.01
61478;BME280;47345;52.334;10.392;2023-08-06T12:33:15;99558.71;;;25.97;46.79
61478;BME280;47345;52.334;10.392;2023-08-06T12:35:46;99552.45;;;26.13;48.73
61478;BME280;47345;52.334;10.392;2023-08-06T12:38:17;99551.41;;;26.45;49.23
61478;BME280;47345;52.334;10.392;2023-08-06T12:40:47;99547.98;;;26.79;47.54
61478;BME280;47345;52.334;10.392;2023-08-06T12:43:18;99553.05;;;26.71;47.20
61478;BME280;47345;52.334;10.392;2023-08-06T12:45:49;99554.77;;;26.20;47.03
61478;BME280;47345;52.334;10.392;2023-08-06T12:48:20;99560.05;;;25.70;47.56
61478;BME280;47345;52.334;10.392;2023-08-06T12:50:51;99556.61;;;25.21;49.33
61478;BME280;47345;52.334;10.392;2023-08-06T12:53:23;99553.55;;;25.03;50.79
61478;BME280;47345;52.334;10.392;2023-08-06T12:55:53;99553.41;;;25.15;51.90
61478;BME280;47345;52.334;10.392;2023-08-06T12:58:24;99553.57;;;25.27;50.00
61478;BME280;47345;52.334;10.392;2023-08-06T13:00:54;99552.30;;;25.31;50.17
61478;BME280;47345;52.334;10.392;2023-08-06T13:03:25;99552.95;;;25.41;49.18
61478;BME280;47345;52.334;10.392;2023-08-06T13:05:59;99549.04;;;25.66;49.96
61478;BME280;47345;52.334;10.392;2023-08-06T13:08:30;99550.91;;;25.73;48.87
61478;BME280;47345;52.334;10.392;2023-08-06T13:11:01;99551.10;;;25.70;47.94
61478;BME280;47345;52.334;10.392;2023-08-06T13:13:32;99556.00;;;25.45;47.68